createdAt,value
2019-05-25T00:00:11.774Z,75.30
2019-05-25T00:02:40.892Z,75.20
2019-05-25T00:05:10.250Z,75.50
2019-05-25T00:07:39.338Z,75.20
2019-05-25T00:10:08.604Z,75.80
2019-05-25T00:12:37.736Z,76.20
2019-05-25T00:15:07.857Z,76.70
2019-05-25T00:17:38.236Z,76.80
2019-05-25T00:20:07.889Z,77.10
2019-05-25T00:22:38.001Z,77.30
2019-05-25T00:25:09.759Z,77.80
2019-05-25T00:27:38.853Z,77.70
2019-05-25T00:30:08.364Z,78.10
2019-05-25T00:32:37.464Z,78.00
2019-05-25T00:35:06.970Z,78.20
2019-05-25T00:37:36.053Z,78.20
2019-05-25T06:25:52.996Z,78.60
2019-05-25T06:28:22.606Z,83.00
2019-05-25T06:30:51.821Z,82.40
2019-05-25T06:43:16.809Z,81.30
2019-05-25T06:48:14.643Z,77.30
2019-05-25T06:50:43.749Z,75.70
2019-05-25T06:53:12.831Z,71.00
2019-05-25T06:58:10.612Z,67.00
2019-05-25T07:00:39.708Z,63.60
2019-05-25T07:03:08.802Z,59.90
2019-05-25T07:05:37.915Z,59.90
2019-05-25T07:08:09.050Z,57.10
2019-05-25T07:10:38.748Z,54.00
2019-05-25T07:13:07.864Z,50.70
2019-05-25T07:15:36.938Z,51.40
2019-05-25T07:18:05.931Z,50.70
2019-05-25T07:20:35.132Z,52.20
2019-05-25T07:23:04.222Z,52.60
2019-05-25T07:25:33.317Z,52.40
2019-05-25T07:28:02.413Z,52.30
2019-05-25T07:30:31.510Z,48.90
2019-05-25T07:33:00.604Z,49.30
2019-05-25T07:35:29.698Z,49.80
2019-05-25T07:37:58.797Z,51.20
2019-05-25T07:40:27.890Z,51.70
2019-05-25T07:42:56.983Z,51.00
2019-05-25T07:45:26.181Z,49.20
2019-05-25T07:47:55.286Z,49.50
2019-05-25T07:50:24.476Z,46.10
2019-05-25T07:52:53.672Z,45.50
2019-05-25T07:55:24.408Z,44.30
2019-05-25T07:57:53.506Z,43.00
2019-05-25T08:00:22.697Z,44.10
2019-05-25T08:02:51.891Z,45.00
2019-05-25T08:05:20.988Z,45.50
2019-05-25T08:07:52.694Z,45.90
2019-05-25T08:10:21.947Z,48.00
2019-05-25T08:12:52.068Z,44.80
2019-05-25T08:15:22.182Z,44.30
2019-05-25T08:17:51.273Z,44.00
2019-05-25T08:20:20.782Z,47.30
2019-05-25T08:22:50.028Z,47.20
2019-05-25T08:25:21.715Z,49.40
2019-05-25T08:27:50.920Z,49.70
2019-05-25T08:30:20.026Z,48.60
2019-05-25T08:32:49.120Z,48.80
2019-05-25T08:35:19.447Z,48.70
2019-05-25T08:37:50.901Z,50.60
2019-05-25T08:40:19.988Z,49.30
2019-05-25T08:42:49.085Z,51.60
2019-05-25T08:45:19.104Z,46.60
2019-05-25T08:47:48.197Z,42.50
2019-05-25T08:50:17.372Z,42.00
2019-05-25T08:52:46.488Z,38.90
2019-05-25T08:55:18.866Z,40.50
2019-05-25T08:57:50.390Z,41.50
2019-05-25T09:00:19.774Z,43.70
2019-05-25T09:02:50.345Z,46.10
2019-05-25T09:07:48.122Z,46.70
2019-05-25T09:10:18.242Z,52.30
2019-05-25T09:12:47.342Z,54.70
2019-05-25T09:15:16.633Z,54.90
2019-05-25T09:17:45.833Z,55.10
2019-05-25T09:20:15.235Z,55.40
2019-05-25T09:22:44.332Z,55.50
2019-05-25T09:25:13.531Z,56.30
2019-05-25T09:27:43.543Z,54.10
2019-05-25T09:30:12.856Z,54.00
2019-05-25T09:32:41.938Z,53.30
2019-05-25T09:35:11.279Z,53.50
2019-05-25T09:37:40.362Z,54.20
2019-05-25T09:40:09.747Z,52.20
2019-05-25T09:42:39.123Z,51.70
2019-05-25T09:45:13.923Z,51.20
2019-05-25T09:47:45.321Z,49.20
2019-05-25T09:50:14.741Z,49.70
2019-05-25T09:52:43.814Z,51.30
2019-05-25T09:55:13.315Z,51.30
2019-05-25T09:57:42.412Z,49.60
2019-05-25T10:00:13.604Z,48.70
2019-05-25T10:02:47.036Z,48.40
2019-05-25T10:05:16.665Z,45.80
2019-05-25T10:07:48.333Z,46.00
2019-05-25T10:10:17.744Z,45.80
2019-05-25T10:12:46.812Z,46.20
2019-05-25T10:15:16.022Z,44.80
2019-05-25T10:17:45.041Z,44.50
2019-05-25T10:20:14.458Z,44.90
2019-05-25T10:22:47.700Z,45.30
2019-05-25T10:25:17.430Z,46.00
2019-05-25T10:27:46.514Z,45.90
2019-05-25T10:30:16.192Z,46.50
2019-05-25T10:32:45.307Z,46.30
2019-05-25T10:35:15.097Z,45.90
2019-05-25T10:37:44.212Z,45.90
2019-05-25T10:40:15.901Z,46.50
2019-05-25T10:42:45.067Z,43.70
2019-05-25T10:45:14.931Z,44.30
2019-05-25T10:47:44.072Z,44.70
2019-05-25T10:50:14.705Z,44.60
2019-05-25T10:52:43.901Z,45.30
2019-05-25T10:55:13.729Z,45.00
2019-05-25T10:57:42.812Z,45.20
2019-05-25T11:00:12.944Z,43.30
2019-05-25T11:02:42.022Z,42.10
2019-05-25T11:05:13.340Z,41.70
2019-05-25T11:07:42.465Z,41.10
2019-05-25T11:10:13.481Z,41.20
2019-05-25T11:12:42.601Z,41.20
2019-05-25T11:15:12.002Z,42.40
2019-05-25T11:17:42.228Z,42.30
2019-05-25T11:20:12.465Z,40.50
2019-05-25T11:22:41.554Z,39.60
2019-05-25T11:25:10.854Z,40.70
2019-05-25T11:27:42.949Z,39.80
2019-05-25T11:30:17.585Z,40.10
2019-05-25T11:32:50.977Z,39.50
2019-05-25T11:35:22.478Z,39.00
2019-05-25T11:37:51.574Z,38.90
2019-05-25T11:40:22.993Z,39.20
2019-05-25T11:42:56.777Z,40.90
2019-05-25T11:45:23.432Z,39.60
2019-05-25T11:47:52.510Z,39.80
2019-05-25T11:50:22.004Z,40.00
2019-05-25T11:52:51.168Z,39.60
2019-05-25T11:55:20.254Z,39.30
2019-05-25T11:57:49.347Z,38.60
2019-05-25T12:00:25.343Z,38.90
2019-05-25T12:02:50.814Z,38.60
2019-05-25T12:05:20.345Z,39.80
2019-05-25T12:07:50.539Z,39.60
2019-05-25T12:10:21.273Z,39.10
2019-05-25T12:12:50.473Z,39.30
2019-05-25T12:15:19.755Z,38.80
2019-05-25T12:17:48.949Z,38.60
2019-05-25T12:20:18.480Z,39.60
2019-05-25T12:22:47.568Z,39.20
2019-05-25T12:25:16.977Z,38.40
2019-05-25T12:27:48.994Z,38.80
2019-05-25T12:30:19.034Z,37.80
2019-05-25T12:32:51.117Z,38.60
2019-05-25T12:35:20.620Z,39.10
2019-05-25T12:37:49.817Z,38.60
2019-05-25T12:40:19.116Z,38.30
2019-05-25T12:42:48.211Z,38.50
2019-05-25T12:45:17.446Z,38.50
2019-05-25T12:47:46.503Z,38.30
2019-05-25T12:50:15.802Z,39.00
2019-05-25T12:52:48.753Z,37.40
2019-05-25T12:55:18.094Z,38.20
2019-05-25T12:57:47.184Z,37.40
2019-05-25T13:00:18.021Z,37.60
2019-05-25T13:02:47.113Z,36.90
2019-05-25T13:05:16.414Z,36.80
2019-05-25T13:07:45.404Z,37.60
2019-05-25T13:10:14.799Z,38.10
2019-05-25T13:12:43.905Z,38.90
2019-05-25T13:15:13.073Z,37.40
2019-05-25T13:17:44.861Z,37.40
2019-05-25T13:20:14.573Z,38.00
2019-05-25T13:22:43.764Z,37.20
2019-05-25T13:25:12.974Z,38.60
2019-05-25T13:27:42.059Z,37.70
2019-05-25T13:30:11.361Z,38.00
2019-05-25T13:32:40.452Z,38.70
2019-05-25T13:35:10.092Z,37.50
2019-05-25T13:37:39.360Z,38.10
2019-05-25T13:40:08.664Z,38.70
2019-05-25T13:42:37.751Z,40.50
2019-05-25T13:45:09.206Z,39.40
2019-05-25T13:47:38.403Z,40.10
2019-05-25T13:50:09.396Z,40.70
2019-05-25T13:52:38.645Z,41.30
2019-05-25T13:55:08.267Z,40.80
2019-05-25T13:57:37.690Z,41.10
2019-05-25T14:00:10.235Z,41.70
2019-05-25T14:02:39.321Z,42.10
2019-05-25T14:05:09.437Z,42.20
2019-05-25T14:07:38.837Z,41.90
2019-05-25T14:10:11.414Z,42.10
2019-05-25T14:12:40.426Z,43.40
2019-05-25T14:15:10.583Z,42.60
2019-05-25T14:17:39.830Z,43.20
2019-05-25T14:20:10.467Z,44.40
2019-05-25T14:22:39.562Z,44.50
2019-05-25T14:25:09.789Z,44.70
2019-05-25T14:27:38.885Z,41.70
2019-05-25T14:30:08.888Z,42.20
2019-05-25T14:32:45.361Z,41.80
2019-05-25T14:35:14.662Z,41.80
2019-05-25T14:37:50.039Z,42.20
2019-05-25T14:40:19.201Z,44.20
2019-05-25T14:42:51.782Z,44.40
2019-05-25T14:45:21.007Z,44.80
2019-05-25T14:47:53.715Z,45.30
2019-05-25T14:50:23.786Z,45.70
2019-05-25T14:52:52.959Z,46.00
2019-05-25T14:55:23.956Z,45.70
2019-05-25T14:57:52.992Z,45.50
2019-05-25T15:00:22.193Z,45.70
2019-05-25T16:45:05.927Z,46.10
2019-05-25T16:47:35.489Z,51.60
2019-05-25T16:50:09.544Z,51.60
2019-05-25T16:52:38.615Z,52.10
2019-05-25T16:55:09.429Z,52.40
2019-05-25T16:57:38.545Z,52.70
2019-05-25T17:00:09.876Z,53.10
2019-05-25T17:02:38.969Z,53.10
2019-05-25T17:37:25.479Z,60.30
2019-05-25T17:39:54.572Z,61.40
2019-05-25T17:42:23.664Z,61.80
2019-05-25T17:44:52.762Z,62.10
2019-05-25T17:47:21.959Z,62.50
2019-05-25T17:49:51.054Z,63.00
2019-05-25T17:52:22.687Z,63.60
2019-05-25T17:54:50.870Z,64.10
2019-05-25T17:57:20.080Z,64.40
2019-05-25T17:59:49.173Z,65.10
2019-05-25T19:09:25.250Z,66.10
2019-05-25T19:11:54.844Z,71.00
2019-05-25T19:14:24.170Z,70.40
2019-05-25T19:16:53.346Z,70.80
2019-05-25T19:21:51.680Z,69.50
2019-05-25T19:24:24.237Z,70.50
2019-05-25T19:26:55.168Z,70.30
2019-05-25T19:29:27.755Z,69.30
2019-05-25T19:31:56.846Z,69.30
2019-05-25T19:34:28.510Z,69.10
2019-05-25T19:37:03.774Z,69.30
2019-05-25T19:39:29.458Z,69.00
2019-05-25T19:41:58.552Z,69.60
2019-05-25T19:44:28.335Z,70.00
2019-05-25T19:46:58.523Z,70.30
2019-05-25T19:51:59.335Z,69.30
2019-05-25T19:54:28.894Z,69.10
2019-05-25T19:56:58.063Z,68.90
2019-05-25T19:59:27.130Z,68.30
2019-05-25T20:01:56.377Z,68.30
2019-05-25T20:04:29.019Z,68.50
2019-05-25T20:06:58.203Z,68.80
2019-05-25T20:09:27.408Z,68.10
2019-05-25T20:11:56.806Z,68.20
2019-05-25T20:14:28.586Z,68.20
2019-05-25T20:16:58.866Z,67.90
2019-05-25T20:19:28.182Z,68.00
2019-05-25T20:21:58.997Z,67.70
2019-05-25T20:24:28.626Z,67.50
2019-05-25T20:27:01.338Z,67.70
2019-05-25T20:29:28.354Z,68.10
2019-05-25T20:31:57.451Z,68.50
2019-05-25T20:34:26.540Z,68.70
2019-05-25T20:36:55.636Z,69.30
2019-05-25T20:39:24.826Z,69.70
2019-05-25T20:41:54.134Z,70.00
2019-05-25T20:44:23.230Z,70.50
2019-05-25T20:46:53.465Z,70.80
2019-05-25T21:16:48.036Z,70.90
2019-05-25T21:19:17.112Z,76.60
2019-05-25T21:21:46.210Z,76.10
2019-05-25T21:24:15.410Z,76.90
2019-05-25T21:26:49.436Z,76.60
2019-05-25T21:29:19.532Z,76.70
2019-05-25T21:31:48.626Z,76.90
2019-05-25T21:34:17.720Z,77.50
2019-05-25T21:36:51.907Z,77.40
2019-05-25T22:14:09.807Z,77.70
2019-05-25T22:16:39.273Z,83.70
2019-05-25T22:19:11.789Z,84.50
2019-05-25T22:21:40.869Z,84.80
2019-05-25T22:24:09.961Z,85.30
2019-05-25T22:26:38.960Z,86.00
2019-05-25T22:29:13.304Z,86.20
2019-05-25T22:31:46.677Z,86.60
2019-05-25T22:34:15.864Z,87.30
2019-05-25T22:36:44.858Z,87.50
2019-05-25T22:39:14.057Z,87.90
2019-05-25T22:41:43.956Z,87.90
2019-05-25T22:44:13.067Z,88.20
2019-05-25T22:46:42.160Z,88.60
2019-05-25T22:49:12.279Z,89.00
2019-05-25T22:51:41.371Z,88.90
2019-05-25T22:54:10.470Z,89.10
2019-05-25T22:56:42.840Z,89.30
2019-05-25T22:59:11.936Z,89.20
2019-05-25T23:01:41.031Z,89.40
2019-05-25T23:04:10.058Z,89.80
2019-05-25T23:06:56.058Z,90.00
